sensor_id;sensor_type;location;lat;lon;timestamp;P1;durP1;ratioP1;P2;durP2;ratioP2
48403;SDS011;34202;52.536;6.042;2022-09-09T00:02:27;2.20;;;1.90;;
48403;SDS011;34202;52.536;6.042;2022-09-09T00:07:43;5.40;;;2.00;;
48403;SDS011;34202;52.536;6.042;2022-09-09T00:12:54;4.50;;;3.40;;
48403;SDS011;34202;52.536;6.042;2022-09-09T00:18:30;3.20;;;2.10;;
48403;SDS011;34202;52.536;6.042;2022-09-09T00:23:38;5.50;;;2.30;;
48403;SDS011;34202;52.536;6.042;2022-09-09T00:29:32;4.70;;;2.30;;
48403;SDS011;34202;52.536;6.042;2022-09-09T00:34:20;3.40;;;2.20;;
48403;SDS011;34202;52.536;6.042;2022-09-09T00:39:34;8.00;;;4.00;;
48403;SDS011;34202;52.536;6.042;2022-09-09T01:00:52;2.30;;;1.70;;
48403;SDS011;34202;52.536;6.042;2022-09-09T01:11:17;4.50;;;1.60;;
48403;SDS011;34202;52.536;6.042;2022-09-09T01:16:22;4.10;;;1.80;;
48403;SDS011;34202;52.536;6.042;2022-09-09T01:26:43;3.30;;;1.70;;
48403;SDS011;34202;52.536;6.042;2022-09-09T01:37:00;6.60;;;1.50;;
48403;SDS011;34202;52.536;6.042;2022-09-09T01:42:05;2.90;;;1.50;;
48403;SDS011;34202;52.536;6.042;2022-09-09T01:47:07;3.40;;;1.70;;
48403;SDS011;34202;52.536;6.042;2022-09-09T01:52:08;3.80;;;1.30;;
48403;SDS011;34202;52.536;6.042;2022-09-09T02:02:32;1.10;;;0.90;;
48403;SDS011;34202;52.536;6.042;2022-09-09T02:07:50;2.90;;;1.40;;
48403;SDS011;34202;52.536;6.042;2022-09-09T02:13:01;2.80;;;1.40;;
48403;SDS011;34202;52.536;6.042;2022-09-09T02:18:08;4.00;;;1.40;;
48403;SDS011;34202;52.536;6.042;2022-09-09T02:23:10;2.60;;;1.60;;
48403;SDS011;34202;52.536;6.042;2022-09-09T02:28:12;3.10;;;1.90;;
48403;SDS011;34202;52.536;6.042;2022-09-09T02:33:16;3.70;;;2.10;;
48403;SDS011;34202;52.536;6.042;2022-09-09T02:38:17;4.20;;;2.20;;
48403;SDS011;34202;52.536;6.042;2022-09-09T02:43:21;4.00;;;1.70;;
48403;SDS011;34202;52.536;6.042;2022-09-09T02:48:26;3.30;;;1.70;;
48403;SDS011;34202;52.536;6.042;2022-09-09T02:53:52;2.10;;;1.70;;
48403;SDS011;34202;52.536;6.042;2022-09-09T02:59:03;2.70;;;2.20;;
48403;SDS011;34202;52.536;6.042;2022-09-09T03:04:04;5.30;;;1.90;;
48403;SDS011;34202;52.536;6.042;2022-09-09T03:09:05;5.10;;;1.70;;
48403;SDS011;34202;52.536;6.042;2022-09-09T03:14:05;3.50;;;1.50;;
48403;SDS011;34202;52.536;6.042;2022-09-09T03:19:06;2.50;;;2.10;;
48403;SDS011;34202;52.536;6.042;2022-09-09T03:24:07;3.60;;;1.70;;
48403;SDS011;34202;52.536;6.042;2022-09-09T03:29:07;2.90;;;1.70;;
48403;SDS011;34202;52.536;6.042;2022-09-09T03:34:07;2.20;;;2.00;;
48403;SDS011;34202;52.536;6.042;2022-09-09T03:39:08;3.10;;;2.00;;
48403;SDS011;34202;52.536;6.042;2022-09-09T03:44:08;5.80;;;2.30;;
48403;SDS011;34202;52.536;6.042;2022-09-09T03:49:08;5.10;;;2.80;;
48403;SDS011;34202;52.536;6.042;2022-09-09T03:54:10;3.80;;;3.30;;
48403;SDS011;34202;52.536;6.042;2022-09-09T03:59:10;5.70;;;4.50;;
48403;SDS011;34202;52.536;6.042;2022-09-09T04:04:11;6.60;;;3.80;;
48403;SDS011;34202;52.536;6.042;2022-09-09T04:09:12;6.50;;;4.10;;
48403;SDS011;34202;52.536;6.042;2022-09-09T04:14:12;5.40;;;3.70;;
48403;SDS011;34202;52.536;6.042;2022-09-09T04:19:12;4.60;;;4.00;;
48403;SDS011;34202;52.536;6.042;2022-09-09T04:24:14;4.10;;;3.70;;
48403;SDS011;34202;52.536;6.042;2022-09-09T04:29:16;5.00;;;3.90;;
48403;SDS011;34202;52.536;6.042;2022-09-09T04:34:16;8.00;;;4.20;;
48403;SDS011;34202;52.536;6.042;2022-09-09T04:39:17;7.30;;;3.30;;
48403;SDS011;34202;52.536;6.042;2022-09-09T04:44:17;9.00;;;4.80;;
48403;SDS011;34202;52.536;6.042;2022-09-09T04:49:18;9.50;;;3.70;;
48403;SDS011;34202;52.536;6.042;2022-09-09T04:54:18;7.20;;;4.20;;
48403;SDS011;34202;52.536;6.042;2022-09-09T04:59:19;6.50;;;4.30;;
48403;SDS011;34202;52.536;6.042;2022-09-09T05:04:19;5.80;;;4.50;;
48403;SDS011;34202;52.536;6.042;2022-09-09T05:09:19;8.20;;;4.50;;
48403;SDS011;34202;52.536;6.042;2022-09-09T05:14:20;6.40;;;4.20;;
48403;SDS011;34202;52.536;6.042;2022-09-09T05:19:20;6.20;;;4.10;;
48403;SDS011;34202;52.536;6.042;2022-09-09T05:24:20;6.40;;;4.60;;
48403;SDS011;34202;52.536;6.042;2022-09-09T05:29:23;6.30;;;3.40;;
48403;SDS011;34202;52.536;6.042;2022-09-09T05:34:23;4.10;;;3.60;;
48403;SDS011;34202;52.536;6.042;2022-09-09T05:39:23;6.10;;;4.30;;
48403;SDS011;34202;52.536;6.042;2022-09-09T05:44:24;9.60;;;4.20;;
48403;SDS011;34202;52.536;6.042;2022-09-09T05:49:27;7.40;;;4.50;;
48403;SDS011;34202;52.536;6.042;2022-09-09T05:54:27;4.90;;;3.10;;
48403;SDS011;34202;52.536;6.042;2022-09-09T05:59:28;9.80;;;4.30;;
48403;SDS011;34202;52.536;6.042;2022-09-09T06:04:28;5.30;;;3.50;;
48403;SDS011;34202;52.536;6.042;2022-09-09T06:09:30;6.20;;;3.60;;
48403;SDS011;34202;52.536;6.042;2022-09-09T06:14:30;9.60;;;4.10;;
48403;SDS011;34202;52.536;6.042;2022-09-09T06:19:31;4.70;;;3.50;;
48403;SDS011;34202;52.536;6.042;2022-09-09T06:24:31;5.70;;;3.30;;
48403;SDS011;34202;52.536;6.042;2022-09-09T06:29:33;4.60;;;3.80;;
48403;SDS011;34202;52.536;6.042;2022-09-09T06:34:33;9.80;;;4.00;;
48403;SDS011;34202;52.536;6.042;2022-09-09T06:39:33;6.00;;;3.70;;
48403;SDS011;34202;52.536;6.042;2022-09-09T06:44:33;5.00;;;3.30;;
48403;SDS011;34202;52.536;6.042;2022-09-09T06:49:34;6.30;;;3.70;;
48403;SDS011;34202;52.536;6.042;2022-09-09T06:54:35;7.70;;;4.80;;
48403;SDS011;34202;52.536;6.042;2022-09-09T06:59:37;5.30;;;3.80;;
48403;SDS011;34202;52.536;6.042;2022-09-09T07:04:38;6.40;;;3.20;;
48403;SDS011;34202;52.536;6.042;2022-09-09T07:09:38;7.40;;;4.30;;
48403;SDS011;34202;52.536;6.042;2022-09-09T07:14:38;8.30;;;3.70;;
48403;SDS011;34202;52.536;6.042;2022-09-09T07:19:39;4.70;;;3.70;;
48403;SDS011;34202;52.536;6.042;2022-09-09T07:24:39;8.60;;;3.80;;
48403;SDS011;34202;52.536;6.042;2022-09-09T07:29:40;10.80;;;4.70;;
48403;SDS011;34202;52.536;6.042;2022-09-09T07:34:40;9.70;;;4.50;;
48403;SDS011;34202;52.536;6.042;2022-09-09T07:39:40;10.30;;;3.80;;
48403;SDS011;34202;52.536;6.042;2022-09-09T07:44:41;12.20;;;4.40;;
48403;SDS011;34202;52.536;6.042;2022-09-09T07:49:41;11.10;;;4.10;;
48403;SDS011;34202;52.536;6.042;2022-09-09T07:54:41;13.50;;;5.60;;
48403;SDS011;34202;52.536;6.042;2022-09-09T07:59:42;6.70;;;2.80;;
48403;SDS011;34202;52.536;6.042;2022-09-09T08:04:42;5.20;;;2.90;;
48403;SDS011;34202;52.536;6.042;2022-09-09T08:09:43;10.80;;;3.80;;
48403;SDS011;34202;52.536;6.042;2022-09-09T08:14:43;8.60;;;3.40;;
48403;SDS011;34202;52.536;6.042;2022-09-09T08:19:44;7.80;;;3.20;;
48403;SDS011;34202;52.536;6.042;2022-09-09T08:24:44;8.50;;;3.00;;
48403;SDS011;34202;52.536;6.042;2022-09-09T08:29:44;9.00;;;2.50;;
48403;SDS011;34202;52.536;6.042;2022-09-09T08:34:45;7.20;;;2.90;;
48403;SDS011;34202;52.536;6.042;2022-09-09T08:39:45;6.60;;;2.40;;
48403;SDS011;34202;52.536;6.042;2022-09-09T08:50:29;6.50;;;2.20;;
48403;SDS011;34202;52.536;6.042;2022-09-09T08:55:50;5.80;;;2.50;;
48403;SDS011;34202;52.536;6.042;2022-09-09T09:11:23;6.70;;;2.00;;
48403;SDS011;34202;52.536;6.042;2022-09-09T09:16:30;10.60;;;2.10;;
48403;SDS011;34202;52.536;6.042;2022-09-09T09:26:43;8.20;;;2.20;;
48403;SDS011;34202;52.536;6.042;2022-09-09T09:31:45;12.60;;;2.10;;
48403;SDS011;34202;52.536;6.042;2022-09-09T09:36:59;6.80;;;1.90;;
48403;SDS011;34202;52.536;6.042;2022-09-09T09:42:11;7.20;;;2.10;;
48403;SDS011;34202;52.536;6.042;2022-09-09T09:47:19;10.80;;;1.80;;
48403;SDS011;34202;52.536;6.042;2022-09-09T09:52:22;7.40;;;1.50;;
48403;SDS011;34202;52.536;6.042;2022-09-09T09:57:31;5.60;;;1.20;;
48403;SDS011;34202;52.536;6.042;2022-09-09T10:02:37;3.40;;;1.30;;
48403;SDS011;34202;52.536;6.042;2022-09-09T10:07:40;6.90;;;1.70;;
48403;SDS011;34202;52.536;6.042;2022-09-09T10:18:15;3.10;;;1.50;;
48403;SDS011;34202;52.536;6.042;2022-09-09T10:30:07;10.80;;;1.50;;
48403;SDS011;34202;52.536;6.042;2022-09-09T10:40:20;4.50;;;1.10;;
48403;SDS011;34202;52.536;6.042;2022-09-09T10:50:43;9.80;;;1.60;;
48403;SDS011;34202;52.536;6.042;2022-09-09T10:55:59;6.00;;;1.50;;
48403;SDS011;34202;52.536;6.042;2022-09-09T11:01:09;13.50;;;2.30;;
48403;SDS011;34202;52.536;6.042;2022-09-09T11:06:17;6.00;;;1.10;;
48403;SDS011;34202;52.536;6.042;2022-09-09T11:11:28;3.80;;;1.30;;
48403;SDS011;34202;52.536;6.042;2022-09-09T11:21:53;8.10;;;1.50;;
48403;SDS011;34202;52.536;6.042;2022-09-09T11:37:34;5.80;;;1.50;;
48403;SDS011;34202;52.536;6.042;2022-09-09T11:42:49;5.30;;;1.70;;
48403;SDS011;34202;52.536;6.042;2022-09-09T11:48:04;5.80;;;1.50;;
48403;SDS011;34202;52.536;6.042;2022-09-09T11:53:18;6.10;;;1.50;;
48403;SDS011;34202;52.536;6.042;2022-09-09T11:58:22;3.70;;;1.10;;
48403;SDS011;34202;52.536;6.042;2022-09-09T12:03:36;8.20;;;1.50;;
48403;SDS011;34202;52.536;6.042;2022-09-09T12:08:43;7.10;;;1.60;;
48403;SDS011;34202;52.536;6.042;2022-09-09T12:13:52;4.20;;;1.50;;
48403;SDS011;34202;52.536;6.042;2022-09-09T12:19:02;8.30;;;1.40;;
48403;SDS011;34202;52.536;6.042;2022-09-09T12:24:11;5.70;;;1.50;;
48403;SDS011;34202;52.536;6.042;2022-09-09T12:40:06;5.60;;;1.90;;
48403;SDS011;34202;52.536;6.042;2022-09-09T12:50:21;5.30;;;1.70;;
48403;SDS011;34202;52.536;6.042;2022-09-09T12:55:29;4.00;;;1.80;;
48403;SDS011;34202;52.536;6.042;2022-09-09T13:00:35;3.40;;;1.40;;
48403;SDS011;34202;52.536;6.042;2022-09-09T13:05:36;5.00;;;2.00;;
48403;SDS011;34202;52.536;6.042;2022-09-09T13:10:53;6.90;;;1.60;;
48403;SDS011;34202;52.536;6.042;2022-09-09T13:15:59;4.50;;;1.20;;
48403;SDS011;34202;52.536;6.042;2022-09-09T13:21:00;5.60;;;1.00;;
48403;SDS011;34202;52.536;6.042;2022-09-09T13:26:53;4.20;;;1.40;;
48403;SDS011;34202;52.536;6.042;2022-09-09T13:31:29;3.80;;;0.80;;
48403;SDS011;34202;52.536;6.042;2022-09-09T13:36:33;5.10;;;1.00;;
48403;SDS011;34202;52.536;6.042;2022-09-09T13:41:36;2.30;;;1.00;;
48403;SDS011;34202;52.536;6.042;2022-09-09T13:46:42;3.10;;;1.10;;
48403;SDS011;34202;52.536;6.042;2022-09-09T13:51:43;2.90;;;0.80;;
48403;SDS011;34202;52.536;6.042;2022-09-09T13:56:46;2.70;;;0.90;;
48403;SDS011;34202;52.536;6.042;2022-09-09T14:01:49;2.10;;;0.80;;
48403;SDS011;34202;52.536;6.042;2022-09-09T14:06:52;1.60;;;0.70;;
48403;SDS011;34202;52.536;6.042;2022-09-09T14:11:53;1.60;;;0.70;;
48403;SDS011;34202;52.536;6.042;2022-09-09T14:16:55;2.10;;;1.00;;
48403;SDS011;34202;52.536;6.042;2022-09-09T14:21:55;3.20;;;1.00;;
48403;SDS011;34202;52.536;6.042;2022-09-09T14:26:56;3.10;;;0.80;;
48403;SDS011;34202;52.536;6.042;2022-09-09T14:31:56;3.40;;;1.80;;
48403;SDS011;34202;52.536;6.042;2022-09-09T14:36:57;2.70;;;1.00;;
48403;SDS011;34202;52.536;6.042;2022-09-09T14:41:57;3.30;;;0.90;;
48403;SDS011;34202;52.536;6.042;2022-09-09T14:46:58;3.50;;;1.40;;
48403;SDS011;34202;52.536;6.042;2022-09-09T14:51:58;2.80;;;1.10;;
48403;SDS011;34202;52.536;6.042;2022-09-09T14:56:59;4.20;;;0.90;;
48403;SDS011;34202;52.536;6.042;2022-09-09T15:01:59;4.70;;;1.30;;
48403;SDS011;34202;52.536;6.042;2022-09-09T15:07:04;3.80;;;0.90;;
48403;SDS011;34202;52.536;6.042;2022-09-09T15:12:04;6.30;;;1.40;;
48403;SDS011;34202;52.536;6.042;2022-09-09T15:17:04;3.70;;;1.40;;
48403;SDS011;34202;52.536;6.042;2022-09-09T15:22:05;2.70;;;1.10;;
48403;SDS011;34202;52.536;6.042;2022-09-09T15:27:07;4.40;;;1.00;;
48403;SDS011;34202;52.536;6.042;2022-09-09T15:32:07;4.00;;;0.90;;
48403;SDS011;34202;52.536;6.042;2022-09-09T15:37:09;5.10;;;1.10;;
48403;SDS011;34202;52.536;6.042;2022-09-09T15:42:12;19.60;;;1.60;;
48403;SDS011;34202;52.536;6.042;2022-09-09T15:47:13;124.40;;;11.10;;
48403;SDS011;34202;52.536;6.042;2022-09-09T15:52:13;36.70;;;3.60;;
48403;SDS011;34202;52.536;6.042;2022-09-09T15:57:13;14.60;;;3.10;;
48403;SDS011;34202;52.536;6.042;2022-09-09T16:02:14;13.60;;;1.90;;
48403;SDS011;34202;52.536;6.042;2022-09-09T16:07:14;9.80;;;1.70;;
48403;SDS011;34202;52.536;6.042;2022-09-09T16:12:15;7.00;;;1.50;;
48403;SDS011;34202;52.536;6.042;2022-09-09T16:17:16;8.50;;;1.70;;
48403;SDS011;34202;52.536;6.042;2022-09-09T16:22:16;6.60;;;1.10;;
48403;SDS011;34202;52.536;6.042;2022-09-09T16:27:18;4.60;;;1.30;;
48403;SDS011;34202;52.536;6.042;2022-09-09T16:32:18;5.80;;;2.10;;
48403;SDS011;34202;52.536;6.042;2022-09-09T16:37:19;5.00;;;1.40;;
48403;SDS011;34202;52.536;6.042;2022-09-09T16:42:20;43.80;;;3.90;;
48403;SDS011;34202;52.536;6.042;2022-09-09T16:47:20;35.30;;;2.50;;
48403;SDS011;34202;52.536;6.042;2022-09-09T16:52:21;23.00;;;2.50;;
48403;SDS011;34202;52.536;6.042;2022-09-09T16:57:21;23.10;;;2.20;;
48403;SDS011;34202;52.536;6.042;2022-09-09T17:02:22;13.80;;;2.70;;
48403;SDS011;34202;52.536;6.042;2022-09-09T17:07:22;13.60;;;2.00;;
48403;SDS011;34202;52.536;6.042;2022-09-09T17:12:23;6.90;;;2.10;;
48403;SDS011;34202;52.536;6.042;2022-09-09T17:17:23;6.20;;;1.80;;
48403;SDS011;34202;52.536;6.042;2022-09-09T17:22:23;6.60;;;2.40;;
48403;SDS011;34202;52.536;6.042;2022-09-09T17:27:26;4.80;;;1.90;;
48403;SDS011;34202;52.536;6.042;2022-09-09T17:32:26;4.50;;;1.50;;
48403;SDS011;34202;52.536;6.042;2022-09-09T17:37:28;4.10;;;1.50;;
48403;SDS011;34202;52.536;6.042;2022-09-09T17:42:29;4.50;;;1.50;;
48403;SDS011;34202;52.536;6.042;2022-09-09T17:47:29;6.40;;;2.10;;
48403;SDS011;34202;52.536;6.042;2022-09-09T17:52:31;7.70;;;1.90;;
48403;SDS011;34202;52.536;6.042;2022-09-09T17:57:31;4.60;;;1.50;;
48403;SDS011;34202;52.536;6.042;2022-09-09T18:02:31;8.10;;;1.90;;
48403;SDS011;34202;52.536;6.042;2022-09-09T18:07:32;5.80;;;2.00;;
48403;SDS011;34202;52.536;6.042;2022-09-09T18:12:33;3.80;;;1.80;;
48403;SDS011;34202;52.536;6.042;2022-09-09T18:17:33;6.40;;;2.00;;
48403;SDS011;34202;52.536;6.042;2022-09-09T18:22:34;4.50;;;1.90;;
48403;SDS011;34202;52.536;6.042;2022-09-09T18:27:34;4.40;;;2.10;;
48403;SDS011;34202;52.536;6.042;2022-09-09T18:32:34;5.40;;;2.20;;
48403;SDS011;34202;52.536;6.042;2022-09-09T18:37:35;4.10;;;2.20;;
48403;SDS011;34202;52.536;6.042;2022-09-09T18:42:36;5.50;;;2.40;;
48403;SDS011;34202;52.536;6.042;2022-09-09T18:47:37;5.90;;;2.40;;
48403;SDS011;34202;52.536;6.042;2022-09-09T18:52:37;3.00;;;2.30;;
48403;SDS011;34202;52.536;6.042;2022-09-09T18:57:37;3.00;;;2.00;;
48403;SDS011;34202;52.536;6.042;2022-09-09T19:02:38;3.60;;;2.30;;
48403;SDS011;34202;52.536;6.042;2022-09-09T19:07:38;7.40;;;2.90;;
48403;SDS011;34202;52.536;6.042;2022-09-09T19:12:40;7.70;;;3.10;;
48403;SDS011;34202;52.536;6.042;2022-09-09T19:17:40;5.40;;;2.30;;
48403;SDS011;34202;52.536;6.042;2022-09-09T19:22:41;3.90;;;2.30;;
48403;SDS011;34202;52.536;6.042;2022-09-09T19:27:41;3.60;;;2.40;;
48403;SDS011;34202;52.536;6.042;2022-09-09T19:32:42;3.60;;;2.50;;
48403;SDS011;34202;52.536;6.042;2022-09-09T19:37:42;5.40;;;2.50;;
48403;SDS011;34202;52.536;6.042;2022-09-09T19:42:43;5.90;;;3.10;;
48403;SDS011;34202;52.536;6.042;2022-09-09T19:47:43;5.20;;;2.50;;
48403;SDS011;34202;52.536;6.042;2022-09-09T19:52:43;5.80;;;2.90;;
48403;SDS011;34202;52.536;6.042;2022-09-09T19:57:44;5.10;;;2.80;;
48403;SDS011;34202;52.536;6.042;2022-09-09T20:02:44;5.80;;;3.10;;
48403;SDS011;34202;52.536;6.042;2022-09-09T20:07:44;3.10;;;2.50;;
48403;SDS011;34202;52.536;6.042;2022-09-09T20:12:44;3.30;;;3.00;;
48403;SDS011;34202;52.536;6.042;2022-09-09T20:17:45;4.70;;;3.30;;
48403;SDS011;34202;52.536;6.042;2022-09-09T20:22:45;5.10;;;3.60;;
48403;SDS011;34202;52.536;6.042;2022-09-09T20:27:46;4.90;;;3.80;;
48403;SDS011;34202;52.536;6.042;2022-09-09T20:32:46;4.70;;;4.00;;
48403;SDS011;34202;52.536;6.042;2022-09-09T20:37:46;6.60;;;3.90;;
48403;SDS011;34202;52.536;6.042;2022-09-09T20:42:47;7.20;;;4.80;;
48403;SDS011;34202;52.536;6.042;2022-09-09T20:47:47;8.30;;;5.50;;
48403;SDS011;34202;52.536;6.042;2022-09-09T20:52:47;6.10;;;4.30;;
48403;SDS011;34202;52.536;6.042;2022-09-09T20:57:48;6.10;;;5.10;;
48403;SDS011;34202;52.536;6.042;2022-09-09T21:02:50;9.20;;;6.30;;
48403;SDS011;34202;52.536;6.042;2022-09-09T21:07:51;9.10;;;5.70;;
48403;SDS011;34202;52.536;6.042;2022-09-09T21:12:51;6.80;;;5.10;;
48403;SDS011;34202;52.536;6.042;2022-09-09T21:17:53;7.20;;;5.10;;
48403;SDS011;34202;52.536;6.042;2022-09-09T21:22:53;7.00;;;6.30;;
48403;SDS011;34202;52.536;6.042;2022-09-09T21:27:54;8.30;;;6.20;;
48403;SDS011;34202;52.536;6.042;2022-09-09T21:32:54;6.60;;;6.00;;
48403;SDS011;34202;52.536;6.042;2022-09-09T21:37:54;7.50;;;6.50;;
48403;SDS011;34202;52.536;6.042;2022-09-09T21:42:55;6.30;;;5.70;;
48403;SDS011;34202;52.536;6.042;2022-09-09T21:47:55;8.20;;;7.20;;
48403;SDS011;34202;52.536;6.042;2022-09-09T21:52:55;10.70;;;8.20;;
48403;SDS011;34202;52.536;6.042;2022-09-09T21:57:56;11.60;;;8.20;;
48403;SDS011;34202;52.536;6.042;2022-09-09T22:03:00;9.10;;;7.40;;
48403;SDS011;34202;52.536;6.042;2022-09-09T22:13:02;12.00;;;7.20;;
48403;SDS011;34202;52.536;6.042;2022-09-09T22:18:02;13.20;;;8.80;;
48403;SDS011;34202;52.536;6.042;2022-09-09T22:23:03;12.70;;;8.40;;
48403;SDS011;34202;52.536;6.042;2022-09-09T22:28:04;9.40;;;8.00;;
48403;SDS011;34202;52.536;6.042;2022-09-09T22:33:06;11.20;;;7.90;;
48403;SDS011;34202;52.536;6.042;2022-09-09T22:38:09;10.10;;;8.80;;
48403;SDS011;34202;52.536;6.042;2022-09-09T22:43:15;9.10;;;8.20;;
48403;SDS011;34202;52.536;6.042;2022-09-09T22:48:18;12.40;;;10.00;;
48403;SDS011;34202;52.536;6.042;2022-09-09T22:53:18;11.20;;;9.40;;
48403;SDS011;34202;52.536;6.042;2022-09-09T22:58:19;12.60;;;10.40;;
48403;SDS011;34202;52.536;6.042;2022-09-09T23:03:21;14.10;;;10.20;;
48403;SDS011;34202;52.536;6.042;2022-09-09T23:08:22;10.70;;;9.50;;
48403;SDS011;34202;52.536;6.042;2022-09-09T23:13:24;12.40;;;11.10;;
48403;SDS011;34202;52.536;6.042;2022-09-09T23:18:27;10.30;;;9.30;;
48403;SDS011;34202;52.536;6.042;2022-09-09T23:23:28;12.80;;;11.60;;
48403;SDS011;34202;52.536;6.042;2022-09-09T23:28:29;12.50;;;11.30;;
48403;SDS011;34202;52.536;6.042;2022-09-09T23:33:32;13.80;;;12.30;;
48403;SDS011;34202;52.536;6.042;2022-09-09T23:38:36;16.10;;;12.70;;
48403;SDS011;34202;52.536;6.042;2022-09-09T23:43:38;14.50;;;13.00;;
48403;SDS011;34202;52.536;6.042;2022-09-09T23:48:38;14.10;;;12.20;;
48403;SDS011;34202;52.536;6.042;2022-09-09T23:53:39;14.70;;;13.20;;
48403;SDS011;34202;52.536;6.042;2022-09-09T23:58:40;16.00;;;13.00;;
